Time;durP1;ratioP1;P1;durP2;ratioP2;P2;SDS_P1;SDS_P2;PMS_P1;PMS_P2;Temp;Humidity;BMP_temperature;BMP_pressure;BME280_temperature;BME280_humidity;BME280_pressure;Samples;Min_cycle;Max_cycle;Signal;HPM_P1;HPM_P2
2022/01/18 00:07:13;;;;;;;31.73;10.43;;;;;;;-1.64;97.69;99986.37;4030882;86;21106;-84
2022/01/18 00:39:48;;;;;;;30.83;8.70;;;;;;;-1.69;97.59;100017.25;4031369;87;21148;-83
2022/01/18 00:46:28;;;;;;;28.13;9.00;;;;;;;-1.72;97.61;100021.83;4028747;86;21093;-83
2022/01/18 00:52:42;;;;;;;30.00;8.17;;;;;;;-1.71;97.65;100037.66;4136100;84;21410;-84
2022/01/18 00:59:09;;;;;;;26.77;8.10;;;;;;;-1.71;97.70;100051.64;4080107;86;21080;-84
2022/01/18 01:05:35;;;;;;;26.10;8.60;;;;;;;-1.68;97.71;100050.55;4076396;85;21150;-84
2022/01/18 01:11:40;;;;;;;18.30;5.80;;;;;;;-1.69;97.64;100062.89;4100506;86;21036;-85
2022/01/18 01:18:42;;;;;;;33.77;8.50;;;;;;;-1.70;97.66;100065.32;3989043;87;21122;-84
2022/01/18 01:45:05;;;;;;;;;;;;;;;;;;;;;
2022/01/18 01:51:11;;;;;;;22.23;7.90;;;;;;;-1.69;97.60;100081.16;4144833;84;21090;-86
2022/01/18 01:57:14;;;;;;;27.33;8.53;;;;;;;-1.71;97.54;100074.45;4154159;84;21506;-86
2022/01/18 02:03:22;;;;;;;30.47;8.47;;;;;;;-1.80;97.29;100066.12;4142325;84;21576;-86
2022/01/18 02:09:42;;;;;;;31.40;9.53;;;;;;;-1.93;96.99;100078.75;4042538;84;21100;-85
2022/01/18 02:36:32;;;;;;;26.40;9.47;;;;;;;-2.30;97.08;100080.81;3680877;94;21102;-85
2022/01/18 02:50:21;;;;;;;33.57;9.87;;;;;;;-2.44;97.07;100077.55;3845360;90;21195;-86
2022/01/18 02:56:44;;;;;;;29.87;10.37;;;;;;;-2.46;97.27;100085.86;3882724;88;21133;-85
2022/01/18 03:09:15;;;;;;;26.43;8.77;;;;;;;-2.53;97.25;100098.72;4109169;85;21446;-85
2022/01/18 03:15:20;;;;;;;22.47;8.37;;;;;;;-2.49;97.35;100098.45;4145076;85;21042;-86
2022/01/18 03:21:27;;;;;;;23.90;8.83;;;;;;;-2.45;97.58;100098.74;4139266;85;21526;-86
2022/01/18 03:33:52;;;;;;;23.70;9.43;;;;;;;-2.34;97.70;100117.82;4153201;85;21011;-83
2022/01/18 03:39:56;;;;;;;30.37;8.97;;;;;;;-2.29;97.77;100118.66;4147070;85;21042;-82
2022/01/18 03:46:02;;;;;;;33.60;9.50;;;;;;;-2.27;97.75;100116.50;4154145;85;22192;-83
2022/01/18 03:52:36;;;;;;;24.47;8.13;;;;;;;-2.24;97.76;100142.78;4142642;85;21050;-82
2022/01/18 03:58:49;;;;;;;28.50;8.95;;;;;;;-2.19;97.88;100141.99;4036990;86;21008;-82
2022/01/18 04:05:05;;;;;;;28.10;9.33;;;;;;;-2.15;97.99;100143.91;4152267;84;21681;-82
2022/01/18 04:11:06;;;;;;;21.23;7.40;;;;;;;-2.12;98.08;100146.59;4149601;84;21106;-82
2022/01/18 04:17:34;;;;;;;33.27;8.83;;;;;;;-2.09;98.10;100144.72;4157784;84;21661;-82
2022/01/18 04:29:42;;;;;;;34.37;9.27;;;;;;;-1.96;98.15;100154.39;4161559;84;21494;-83
2022/01/18 04:35:43;;;;;;;21.30;8.67;;;;;;;-1.90;98.08;100141.28;4158194;83;21066;-84
2022/01/18 04:41:46;;;;;;;35.10;8.83;;;;;;;-1.83;98.18;100159.27;4144214;84;21591;-82
2022/01/18 04:54:31;;;;;;;22.93;8.67;;;;;;;-1.72;98.08;100185.05;4176516;82;40406;-83
2022/01/18 05:00:33;;;;;;;24.03;7.90;;;;;;;-1.68;98.10;100190.15;4287480;81;21026;-82
2022/01/18 05:06:46;;;;;;;26.97;8.60;;;;;;;-1.63;98.03;100192.84;4292930;82;21164;-82
2022/01/18 05:12:50;;;;;;;27.30;9.13;;;;;;;-1.58;97.96;100192.05;4263100;82;21044;-83
2022/01/18 05:19:26;;;;;;;;;;;;;;;-1.57;98.10;100199.83;4170320;82;34978;-82
2022/01/18 05:25:21;;;;;;;40.80;14.80;;;;;;;-1.55;98.10;100203.59;3923623;88;20173;-83
2022/01/18 05:31:25;;;;;;;83.95;29.90;;;;;;;-1.53;98.06;100203.36;4081478;86;21625;-83
2022/01/18 05:37:26;;;;;;;60.23;23.50;;;;;;;-1.54;98.04;100201.20;4082790;86;21225;-83
2022/01/18 05:43:33;;;;;;;37.87;16.50;;;;;;;-1.52;98.05;100221.88;4086457;86;21039;-83
2022/01/18 05:49:34;;;;;;;26.20;10.50;;;;;;;-1.51;98.07;100232.89;4080160;86;21078;-82
2022/01/18 05:55:45;;;;;;;31.90;12.07;;;;;;;-1.50;97.99;100231.80;3987369;88;21564;-82
2022/01/18 06:02:01;;;;;;;30.90;10.30;;;;;;;-1.50;98.00;100234.48;4082095;85;20982;-82
2022/01/18 06:08:03;;;;;;;21.87;8.00;;;;;;;-1.50;97.98;100242.55;4115840;85;21101;-82
2022/01/18 06:14:05;;;;;;;25.93;10.20;;;;;;;-1.48;97.98;100240.94;4136339;84;21020;-83
2022/01/18 06:20:13;;;;;;;21.87;10.08;;;;;;;-1.49;97.94;100241.49;4136046;84;21367;-83
2022/01/18 06:26:20;;;;;;;32.07;10.13;;;;;;;-1.47;98.08;100251.97;4143247;84;22239;-83
2022/01/18 06:32:22;;;;;;;23.50;9.68;;;;;;;-1.45;97.89;100249.80;4135554;84;21037;-82
2022/01/18 06:38:23;;;;;;;31.97;9.25;;;;;;;-1.47;97.89;100241.22;4136491;83;21033;-82
2022/01/18 06:44:29;;;;;;;27.70;9.83;;;;;;;-1.49;97.86;100247.39;4110944;84;21097;-82
2022/01/18 06:50:31;;;;;;;;;;;;;;;-1.51;97.89;100251.69;4141519;84;21108;-84
2022/01/18 06:56:32;;;;;;;26.00;9.78;;;;;;;-1.51;98.01;100282.56;4134290;85;20137;-82
2022/01/18 07:02:33;;;;;;;26.48;9.03;;;;;;;-1.48;98.06;100294.64;4143746;84;21057;-83
2022/01/18 07:08:34;;;;;;;29.30;9.18;;;;;;;-1.45;98.02;100302.98;4127203;84;21550;-83
2022/01/18 07:14:36;;;;;;;30.08;9.55;;;;;;;-1.43;98.01;100318.31;4121050;85;21061;-83
2022/01/18 07:20:38;;;;;;;24.57;9.18;;;;;;;-1.37;98.12;100317.77;4127832;85;21185;-83
2022/01/18 07:26:47;;;;;;;28.47;9.57;;;;;;;-1.32;98.20;100340.10;4128023;85;21017;-83
2022/01/18 07:32:51;;;;;;;27.93;8.63;;;;;;;-1.25;98.29;100337.16;4126291;85;21046;-83
2022/01/18 07:38:59;;;;;;;24.02;9.43;;;;;;;-1.20;97.91;100344.69;4125286;85;21033;-83
2022/01/18 07:45:00;;;;;;;25.75;8.40;;;;;;;-1.16;97.90;100349.79;4123776;85;21045;-84
2022/01/18 07:51:02;;;;;;;20.52;7.12;;;;;;;-1.09;97.92;100361.63;4120776;85;21041;-84
2022/01/18 07:57:03;;;;;;;21.97;7.53;;;;;;;-1.05;97.78;100376.95;4121011;85;21127;-84
2022/01/18 08:03:11;;;;;;;23.30;8.23;;;;;;;-1.00;97.70;100381.56;4121737;85;21058;-83
2022/01/18 08:09:19;;;;;;;21.70;7.78;;;;;;;-0.90;97.72;100379.69;4127396;85;21092;-84
2022/01/18 08:15:23;;;;;;;31.12;8.65;;;;;;;-0.86;97.53;100378.63;4121953;85;21021;-84
2022/01/18 08:21:44;;;;;;;23.62;8.00;;;;;;;-0.86;97.45;100393.41;4137004;84;21041;-83
2022/01/18 08:27:50;;;;;;;20.88;7.60;;;;;;;-0.80;97.41;100413.30;4159461;83;39483;-83
2022/01/18 08:33:56;;;;;;;25.08;7.35;;;;;;;-0.80;97.41;100413.30;4191244;83;21071;-84
2022/01/18 08:39:57;;;;;;;17.02;6.00;;;;;;;-0.73;97.02;100422.45;4197056;83;21045;-84
2022/01/18 08:46:00;;;;;;;19.12;8.08;;;;;;;-0.62;97.32;100438.34;4194735;83;21580;-83
2022/01/18 08:52:02;;;;;;;25.45;9.93;;;;;;;-0.62;97.32;100438.34;4194722;85;21021;-83
2022/01/18 08:58:46;;;;;;;27.70;9.85;;;;;;;-0.55;96.89;100444.82;4196848;85;21205;-83
2022/01/18 09:04:47;;;;;;;43.45;17.65;;;;;;;-0.49;96.80;100458.54;4195898;83;21524;-84
2022/01/18 09:10:55;;;;;;;36.53;14.50;;;;;;;-0.58;96.76;100450.73;4194293;83;21077;-83
2022/01/18 09:16:56;;;;;;;29.50;10.93;;;;;;;-0.51;96.58;100486.23;4175093;83;21983;-84
2022/01/18 09:22:58;;;;;;;34.70;11.00;;;;;;;-0.23;96.52;100517.50;4193956;83;22081;-84
2022/01/18 09:28:59;;;;;;;35.48;10.85;;;;;;;-0.23;96.52;100517.50;4193993;83;21533;-84
2022/01/18 09:48:15;;;;;;;25.52;8.00;;;;;;;-0.03;96.50;100508.09;4195338;83;21601;-84
2022/01/18 09:54:23;;;;;;;20.27;6.60;;;;;;;-0.07;95.97;100519.13;4197311;83;21055;-84
2022/01/18 10:00:34;;;;;;;18.15;6.35;;;;;;;-0.04;96.30;100519.94;4238560;83;20971;-85
2022/01/18 10:06:39;;;;;;;15.45;6.00;;;;;;;-0.03;96.26;100515.34;4186224;83;21049;-85
2022/01/18 10:12:57;;;;;;;26.82;7.50;;;;;;;-0.03;96.08;100516.16;4163104;83;21862;-86
2022/01/18 10:19:13;;;;;;;20.75;7.08;;;;;;;-0.01;96.13;100522.63;4176897;83;21031;-86
2022/01/18 10:31:59;;;;;;;30.55;9.13;;;;;;;0.14;96.41;100536.63;4175747;83;21065;-86
2022/01/18 10:38:18;;;;;;;30.88;9.60;;;;;;;0.19;96.13;100547.41;4014180;86;63606;-86
2022/01/18 10:44:20;;;;;;;26.23;8.63;;;;;;;0.30;96.30;100547.68;4027159;87;21124;-88
2022/01/18 10:50:21;;;;;;;26.27;9.68;;;;;;;0.40;96.02;100553.05;4030761;87;21133;-86
2022/01/18 10:56:23;;;;;;;23.70;9.18;;;;;;;0.40;96.08;100557.91;3985161;87;21550;-86
2022/01/18 11:02:25;;;;;;;26.82;8.98;;;;;;;0.43;95.93;100553.32;4079576;85;21745;-87
2022/01/18 11:08:26;;;;;;;29.18;11.20;;;;;;;0.41;96.11;100551.98;4114372;85;21071;-87
2022/01/18 11:14:30;;;;;;;27.27;9.55;;;;;;;0.50;95.97;100559.78;4160810;83;21054;-88
2022/01/18 11:20:36;;;;;;;28.02;9.98;;;;;;;0.54;95.88;100567.05;4201837;83;21551;-87
2022/01/18 11:26:39;;;;;;;22.25;9.23;;;;;;;0.55;95.24;100571.91;4229505;83;21478;-88
2022/01/18 11:32:41;;;;;;;22.37;9.18;;;;;;;0.53;95.35;100577.58;4198635;82;21062;-87
2022/01/18 11:38:50;;;;;;;22.85;9.55;;;;;;;0.56;95.14;100579.72;4199613;83;21071;-89
2022/01/18 11:44:51;;;;;;;20.70;8.78;;;;;;;0.62;95.33;100577.81;4083335;85;20998;-87
2022/01/18 11:51:06;;;;;;;23.98;9.90;;;;;;;0.63;94.85;100582.94;4214739;83;21042;-89
2022/01/18 11:57:29;;;;;;;28.07;11.20;;;;;;;0.64;95.08;100571.63;4209306;82;21039;-89
2022/01/18 12:03:44;;;;;;;23.87;9.83;;;;;;;0.70;95.23;100571.34;4105352;85;21124;-89
2022/01/18 12:09:48;;;;;;;22.50;9.25;;;;;;;0.79;94.70;100572.94;4187086;82;21094;-89
2022/01/18 12:15:51;;;;;;;21.15;7.28;;;;;;;0.72;93.90;100580.51;4007293;86;21565;-89
2022/01/18 12:21:53;;;;;;;18.95;7.28;;;;;;;0.74;93.74;100593.97;3996192;87;21103;-89
2022/01/18 12:27:56;;;;;;;20.82;6.97;;;;;;;0.72;93.66;100610.95;3965934;87;21206;-89
2022/01/18 12:33:57;;;;;;;22.27;7.20;;;;;;;0.66;93.27;100609.34;3996977;87;21095;-89
2022/01/18 12:46:07;;;;;;;27.62;9.43;;;;;;;0.57;93.09;100616.89;3994659;87;21121;-90
2022/01/18 12:52:08;;;;;;;24.87;9.38;;;;;;;0.55;93.22;100614.47;3991042;86;21130;-88
2022/01/18 12:58:21;;;;;;;22.07;10.70;;;;;;;0.63;93.19;100623.89;4013915;86;21115;-89
2022/01/18 13:04:27;;;;;;;32.48;11.93;;;;;;;0.69;93.02;100627.66;3968320;87;22016;-89
2022/01/18 13:10:44;;;;;;;23.05;9.50;;;;;;;0.73;93.17;100632.80;4043324;85;21011;-91
2022/01/18 13:23:07;;;;;;;24.60;9.65;;;;;;;0.51;92.49;100644.39;4093373;85;21059;-89
2022/01/18 13:29:15;;;;;;;28.25;11.97;;;;;;;0.39;92.08;100643.85;4081987;85;21039;-89
2022/01/18 13:35:28;;;;;;;29.07;12.25;;;;;;;0.38;92.57;100643.56;4094693;85;21575;-90
2022/01/18 13:41:30;;;;;;;33.88;13.03;;;;;;;0.38;92.57;100639.52;4099898;84;21080;-90
2022/01/18 13:47:52;;;;;;;32.63;12.80;;;;;;;0.40;92.40;100638.72;4085825;85;21019;-90
2022/01/18 13:53:59;;;;;;;24.60;11.00;;;;;;;0.37;92.09;100646.53;4089341;85;21051;-89
2022/01/18 14:00:07;;;;;;;30.95;14.13;;;;;;;0.30;91.99;100663.51;4091651;85;21077;-89
2022/01/18 14:06:13;;;;;;;25.55;10.82;;;;;;;0.25;91.84;100668.88;4081886;85;21106;-89
2022/01/18 14:12:17;;;;;;;30.60;11.10;;;;;;;0.26;92.04;100677.22;4061345;85;21087;-88
2022/01/18 14:18:19;;;;;;;29.02;11.83;;;;;;;0.18;91.79;100682.59;4032549;87;21740;-89
2022/01/18 14:24:44;;;;;;;30.82;12.75;;;;;;;0.11;91.86;100682.03;4036605;86;21331;-89
2022/01/18 14:30:47;;;;;;;31.03;12.57;;;;;;;0.09;91.81;100686.07;4025521;87;21153;-88
2022/01/18 14:36:54;;;;;;;32.90;12.33;;;;;;;-0.02;91.38;100690.63;3991473;88;21063;-89
2022/01/18 15:08:07;;;;;;;32.08;14.65;;;;;;;-0.10;91.44;100724.78;4537625;77;21070;-89
2022/01/18 15:28:18;;;;;;;48.58;19.32;;;;;;;-0.26;92.01;100733.86;4543140;77;21023;-88
2022/01/18 15:41:49;;;;;;;44.77;17.00;;;;;;;-0.31;91.81;100752.14;4541386;77;21018;-88
2022/01/18 16:28:39;;;;;;;41.33;16.00;;;;;;;-0.44;91.15;100774.12;4531797;77;20996;-88
2022/01/18 16:41:50;;;;;;;45.10;16.52;;;;;;;-0.46;91.23;100784.88;4531016;77;21043;-89
2022/01/18 16:47:53;;;;;;;42.27;15.55;;;;;;;-0.44;90.77;100784.09;4537145;77;20999;-88
2022/01/18 16:53:55;;;;;;;44.63;16.73;;;;;;;-0.43;90.85;100788.39;4541443;77;20983;-90
2022/01/18 17:06:50;;;;;;;34.95;14.83;;;;;;;-0.55;90.58;100778.37;4526432;77;21059;-87
2022/01/18 17:12:51;;;;;;;44.83;17.82;;;;;;;-0.55;90.58;100778.37;4513639;77;21490;-88
2022/01/18 17:18:53;;;;;;;42.17;18.12;;;;;;;-0.47;90.62;100796.16;4530370;77;21514;-87
2022/01/18 17:24:54;;;;;;;55.65;20.40;;;;;;;-0.47;90.62;100796.16;4513578;77;21010;-88
2022/01/18 17:45:13;;;;;;;40.92;17.27;;;;;;;-0.54;90.42;100774.59;4523180;78;21086;-88
2022/01/18 17:51:15;;;;;;;41.48;18.23;;;;;;;-0.54;90.42;100774.59;4518155;77;21019;-88
2022/01/18 18:04:11;;;;;;;45.55;18.67;;;;;;;-0.52;90.29;100801.50;4498940;77;21043;-88
2022/01/18 18:24:11;;;;;;;60.30;22.77;;;;;;;-0.50;90.15;100781.09;4540307;77;21008;-88
2022/01/18 18:30:30;;;;;;;52.67;22.87;;;;;;;-0.51;90.19;100799.11;4539719;78;21039;-88
2022/01/18 18:43:40;;;;;;;64.40;27.73;;;;;;;-0.52;90.47;100796.68;4530076;77;20992;-88
2022/01/18 18:49:41;;;;;;;72.87;31.57;;;;;;;-0.52;90.47;100796.68;4530884;77;21049;-88
2022/01/18 18:55:48;;;;;;;68.02;28.02;;;;;;;-0.54;90.76;100772.73;4517517;77;20987;-88
2022/01/18 19:02:10;;;;;;;73.05;28.42;;;;;;;-0.54;90.54;100771.38;4507789;77;20956;-88
2022/01/18 19:08:30;;;;;;;;;;;;;;;;;;;;;
2022/01/18 19:14:19;;;;;;;62.40;27.37;;;;;;;-0.67;90.31;100776.38;4485694;77;21031;-87
2022/01/18 19:28:10;;;;;;;71.85;28.90;;;;;;;-0.55;90.93;100812.78;4545955;77;21031;-88
2022/01/18 19:34:32;;;;;;;71.95;29.67;;;;;;;-0.57;90.87;100818.16;4517948;77;21553;-88
2022/01/18 19:40:41;;;;;;;69.37;27.45;;;;;;;-0.58;90.80;100809.83;4534345;77;21023;-88
2022/01/18 19:53:20;;;;;;;50.67;21.15;;;;;;;-0.60;90.59;100822.70;4517262;78;21002;-87
2022/01/18 19:59:22;;;;;;;50.20;20.05;;;;;;;-0.66;90.57;100821.84;4547679;77;21031;-87
2022/01/18 20:12:36;;;;;;;51.83;21.20;;;;;;;-0.70;90.70;100824.78;4535842;77;21139;-87
2022/01/18 20:18:49;;;;;;;52.23;21.62;;;;;;;-0.70;90.70;100824.78;4559516;78;21012;-87
2022/01/18 20:24:52;;;;;;;65.83;24.23;;;;;;;-0.68;90.43;100823.18;4503891;77;21015;-88
2022/01/18 20:38:24;;;;;;;;;;;;;;;-0.62;90.60;100793.91;4542788;78;20991;-88
2022/01/18 20:44:27;;;;;;;64.95;26.42;;;;;;;-0.59;90.68;100788.83;4532796;77;20412;-91
2022/01/18 20:51:14;;;;;;;65.05;27.50;;;;;;;-0.62;90.93;100800.11;4538740;78;20991;-89
2022/01/18 20:57:26;;;;;;;70.97;28.17;;;;;;;-0.62;90.93;100800.11;4527814;77;21371;-88
2022/01/18 21:03:43;;;;;;;65.97;26.73;;;;;;;-0.62;90.59;100802.80;4516756;77;21022;-87
2022/01/18 21:10:44;;;;;;;67.75;28.05;;;;;;;-0.64;90.82;100821.61;4493350;77;21048;-88
2022/01/18 21:23:36;;;;;;;70.55;30.05;;;;;;;-0.79;90.76;100772.55;4352357;78;21491;-88
2022/01/18 21:29:46;;;;;;;67.75;25.92;;;;;;;-0.72;90.80;100793.30;4394454;78;21673;-87
2022/01/18 21:35:53;;;;;;;70.47;25.17;;;;;;;-0.73;90.70;100796.24;4392692;78;21050;-87
2022/01/18 21:42:08;;;;;;;65.57;25.95;;;;;;;-0.72;90.60;100810.77;4403451;78;21055;-87
2022/01/18 21:48:25;;;;;;;56.02;23.45;;;;;;;-0.76;90.39;100803.48;4392606;78;21011;-87
2022/01/18 21:54:27;;;;;;;60.45;22.65;;;;;;;-0.76;90.39;100803.48;4423060;78;21012;-87
2022/01/18 22:00:28;;;;;;;62.38;24.32;;;;;;;-0.77;90.35;100810.76;4478470;78;22271;-87
2022/01/18 22:06:30;;;;;;;68.35;22.90;;;;;;;-0.80;90.61;100813.14;4396155;78;20984;-87
2022/01/18 22:12:31;;;;;;;59.95;24.02;;;;;;;-0.83;90.41;100813.66;4401268;78;21047;-87
2022/01/18 22:18:35;;;;;;;65.08;24.15;;;;;;;-0.86;90.30;100801.52;4502415;77;21224;-87
2022/01/18 22:24:53;;;;;;;61.25;22.07;;;;;;;-0.92;90.36;100807.92;4482211;78;21019;-87
2022/01/18 22:30:56;;;;;;;51.25;21.85;;;;;;;-0.95;90.38;100808.97;4499185;77;21454;-86
2022/01/18 22:37:30;;;;;;;51.28;20.68;;;;;;;-1.00;90.37;100787.44;4501759;77;20999;-87
2022/01/18 22:43:31;;;;;;;58.25;21.55;;;;;;;-1.03;90.38;100780.68;4498620;77;21626;-86
2022/01/18 22:49:53;;;;;;;68.47;22.48;;;;;;;-1.07;90.47;100776.89;4421918;78;21551;-87
2022/01/18 22:56:27;;;;;;;58.08;21.62;;;;;;;-1.09;90.33;100780.36;4460524;77;21650;-86
2022/01/18 23:02:30;;;;;;;59.18;21.57;;;;;;;-1.13;90.15;100765.01;4507460;77;21122;-85
2022/01/18 23:09:01;;;;;;;53.17;21.10;;;;;;;-1.19;90.34;100762.79;4485025;77;21122;-86
2022/01/18 23:15:08;;;;;;;57.97;19.40;;;;;;;-1.20;90.29;100771.93;4503220;77;21031;-85
2022/01/18 23:21:15;;;;;;;54.87;19.33;;;;;;;-1.20;90.32;100763.87;4534076;77;21038;-86
2022/01/18 23:27:22;;;;;;;54.75;20.02;;;;;;;-1.16;90.47;100752.88;4530288;77;22022;-85
2022/01/18 23:33:50;;;;;;;53.80;20.90;;;;;;;-1.14;90.38;100752.09;4500964;78;21050;-85
2022/01/18 23:39:59;;;;;;;53.42;18.70;;;;;;;-1.12;90.61;100735.19;4532186;77;20951;-86
2022/01/18 23:46:08;;;;;;;50.20;19.42;;;;;;;-1.09;90.60;100744.08;4544119;77;21536;-86
2022/01/18 23:52:09;;;;;;;60.55;19.15;;;;;;;-1.08;90.56;100740.31;4531819;77;20979;-85
2022/01/18 23:58:12;;;;;;;54.48;19.23;;;;;;;-1.04;90.67;100726.66;4522892;77;21589;-85
